sensor_id;sensor_type;location;lat;lon;timestamp;P1;durP1;ratioP1;P2;durP2;ratioP2
55025;SDS011;40925;45.666;18.994;2023-05-09T00:00:30;8.15;;;4.97;;
55025;SDS011;40925;45.666;18.994;2023-05-09T00:02:56;9.15;;;5.55;;
55025;SDS011;40925;45.666;18.994;2023-05-09T00:05:22;8.00;;;5.30;;
55025;SDS011;40925;45.666;18.994;2023-05-09T00:07:49;6.88;;;5.00;;
55025;SDS011;40925;45.666;18.994;2023-05-09T00:10:15;9.35;;;5.07;;
55025;SDS011;40925;45.666;18.994;2023-05-09T00:12:41;7.57;;;4.78;;
55025;SDS011;40925;45.666;18.994;2023-05-09T00:15:08;6.60;;;4.70;;
55025;SDS011;40925;45.666;18.994;2023-05-09T00:17:34;7.85;;;4.72;;
55025;SDS011;40925;45.666;18.994;2023-05-09T00:20:00;7.82;;;4.90;;
55025;SDS011;40925;45.666;18.994;2023-05-09T00:22:29;7.63;;;5.00;;
55025;SDS011;40925;45.666;18.994;2023-05-09T00:24:55;7.50;;;4.72;;
55025;SDS011;40925;45.666;18.994;2023-05-09T00:27:21;8.18;;;5.07;;
55025;SDS011;40925;45.666;18.994;2023-05-09T00:29:47;7.95;;;5.00;;
55025;SDS011;40925;45.666;18.994;2023-05-09T00:32:13;8.27;;;4.53;;
55025;SDS011;40925;45.666;18.994;2023-05-09T00:34:39;10.52;;;4.80;;
55025;SDS011;40925;45.666;18.994;2023-05-09T00:37:05;6.88;;;5.00;;
55025;SDS011;40925;45.666;18.994;2023-05-09T00:39:31;8.10;;;4.70;;
55025;SDS011;40925;45.666;18.994;2023-05-09T00:41:57;8.68;;;4.82;;
55025;SDS011;40925;45.666;18.994;2023-05-09T00:44:23;6.65;;;5.03;;
55025;SDS011;40925;45.666;18.994;2023-05-09T00:46:50;8.13;;;4.80;;
55025;SDS011;40925;45.666;18.994;2023-05-09T00:49:16;8.00;;;4.68;;
55025;SDS011;40925;45.666;18.994;2023-05-09T00:51:42;8.88;;;5.07;;
55025;SDS011;40925;45.666;18.994;2023-05-09T00:54:08;8.18;;;4.95;;
55025;SDS011;40925;45.666;18.994;2023-05-09T00:56:36;9.48;;;5.05;;
55025;SDS011;40925;45.666;18.994;2023-05-09T00:59:02;9.95;;;5.25;;
55025;SDS011;40925;45.666;18.994;2023-05-09T01:01:28;9.18;;;5.07;;
55025;SDS011;40925;45.666;18.994;2023-05-09T01:03:54;9.32;;;5.18;;
55025;SDS011;40925;45.666;18.994;2023-05-09T01:09:04;9.15;;;4.88;;
55025;SDS011;40925;45.666;18.994;2023-05-09T01:11:40;8.63;;;4.80;;
55025;SDS011;40925;45.666;18.994;2023-05-09T01:14:14;8.85;;;5.35;;
55025;SDS011;40925;45.666;18.994;2023-05-09T01:21:47;7.97;;;4.82;;
55025;SDS011;40925;45.666;18.994;2023-05-09T01:29:36;10.02;;;5.15;;
55025;SDS011;40925;45.666;18.994;2023-05-09T01:32:03;7.43;;;5.00;;
55025;SDS011;40925;45.666;18.994;2023-05-09T01:34:32;10.10;;;5.40;;
55025;SDS011;40925;45.666;18.994;2023-05-09T01:36:59;9.38;;;5.30;;
55025;SDS011;40925;45.666;18.994;2023-05-09T01:39:26;8.10;;;5.13;;
55025;SDS011;40925;45.666;18.994;2023-05-09T01:41:53;8.23;;;4.82;;
55025;SDS011;40925;45.666;18.994;2023-05-09T01:44:20;7.60;;;5.13;;
55025;SDS011;40925;45.666;18.994;2023-05-09T01:46:47;9.23;;;5.30;;
55025;SDS011;40925;45.666;18.994;2023-05-09T01:49:14;8.55;;;5.18;;
55025;SDS011;40925;45.666;18.994;2023-05-09T01:54:44;6.55;;;4.78;;
55025;SDS011;40925;45.666;18.994;2023-05-09T01:57:11;8.23;;;5.32;;
55025;SDS011;40925;45.666;18.994;2023-05-09T01:59:38;9.10;;;5.47;;
55025;SDS011;40925;45.666;18.994;2023-05-09T02:02:05;7.55;;;5.53;;
55025;SDS011;40925;45.666;18.994;2023-05-09T02:04:32;8.48;;;5.05;;
55025;SDS011;40925;45.666;18.994;2023-05-09T02:06:58;7.47;;;5.18;;
55025;SDS011;40925;45.666;18.994;2023-05-09T02:09:25;8.70;;;5.10;;
55025;SDS011;40925;45.666;18.994;2023-05-09T02:11:51;7.43;;;5.15;;
55025;SDS011;40925;45.666;18.994;2023-05-09T02:14:17;7.70;;;5.13;;
55025;SDS011;40925;45.666;18.994;2023-05-09T02:16:43;9.05;;;5.00;;
55025;SDS011;40925;45.666;18.994;2023-05-09T02:19:09;8.77;;;5.20;;
55025;SDS011;40925;45.666;18.994;2023-05-09T02:21:35;9.73;;;5.40;;
55025;SDS011;40925;45.666;18.994;2023-05-09T02:24:02;8.77;;;5.20;;
55025;SDS011;40925;45.666;18.994;2023-05-09T02:26:28;7.88;;;5.35;;
55025;SDS011;40925;45.666;18.994;2023-05-09T02:28:54;9.35;;;5.40;;
55025;SDS011;40925;45.666;18.994;2023-05-09T02:31:21;7.65;;;5.18;;
55025;SDS011;40925;45.666;18.994;2023-05-09T02:33:47;7.05;;;5.00;;
55025;SDS011;40925;45.666;18.994;2023-05-09T02:36:14;8.90;;;5.60;;
55025;SDS011;40925;45.666;18.994;2023-05-09T02:41:26;8.32;;;5.25;;
55025;SDS011;40925;45.666;18.994;2023-05-09T02:43:52;8.02;;;5.18;;
55025;SDS011;40925;45.666;18.994;2023-05-09T02:46:19;8.30;;;4.90;;
55025;SDS011;40925;45.666;18.994;2023-05-09T02:48:45;9.75;;;5.30;;
55025;SDS011;40925;45.666;18.994;2023-05-09T02:51:11;9.15;;;5.30;;
55025;SDS011;40925;45.666;18.994;2023-05-09T02:59:06;8.93;;;5.57;;
55025;SDS011;40925;45.666;18.994;2023-05-09T03:01:33;9.15;;;5.68;;
55025;SDS011;40925;45.666;18.994;2023-05-09T03:03:59;7.47;;;5.07;;
55025;SDS011;40925;45.666;18.994;2023-05-09T03:06:25;10.48;;;4.95;;
55025;SDS011;40925;45.666;18.994;2023-05-09T03:08:51;7.50;;;5.70;;
55025;SDS011;40925;45.666;18.994;2023-05-09T03:11:17;15.60;;;5.60;;
55025;SDS011;40925;45.666;18.994;2023-05-09T03:13:43;9.38;;;5.10;;
55025;SDS011;40925;45.666;18.994;2023-05-09T03:16:11;9.35;;;5.55;;
55025;SDS011;40925;45.666;18.994;2023-05-09T03:18:38;8.48;;;5.28;;
55025;SDS011;40925;45.666;18.994;2023-05-09T03:21:04;10.68;;;5.53;;
55025;SDS011;40925;45.666;18.994;2023-05-09T03:23:30;9.05;;;5.28;;
55025;SDS011;40925;45.666;18.994;2023-05-09T03:25:56;8.07;;;5.50;;
55025;SDS011;40925;45.666;18.994;2023-05-09T03:28:22;7.18;;;5.20;;
55025;SDS011;40925;45.666;18.994;2023-05-09T03:30:48;8.63;;;5.20;;
55025;SDS011;40925;45.666;18.994;2023-05-09T03:33:15;7.75;;;4.95;;
55025;SDS011;40925;45.666;18.994;2023-05-09T03:35:41;9.02;;;5.32;;
55025;SDS011;40925;45.666;18.994;2023-05-09T03:41:15;8.70;;;4.95;;
55025;SDS011;40925;45.666;18.994;2023-05-09T03:43:41;7.50;;;4.78;;
55025;SDS011;40925;45.666;18.994;2023-05-09T03:46:07;12.10;;;5.10;;
55025;SDS011;40925;45.666;18.994;2023-05-09T03:48:33;8.02;;;5.25;;
55025;SDS011;40925;45.666;18.994;2023-05-09T03:50:59;10.55;;;5.85;;
55025;SDS011;40925;45.666;18.994;2023-05-09T03:53:26;7.75;;;5.07;;
55025;SDS011;40925;45.666;18.994;2023-05-09T03:55:52;7.75;;;4.82;;
55025;SDS011;40925;45.666;18.994;2023-05-09T03:58:19;7.80;;;4.93;;
55025;SDS011;40925;45.666;18.994;2023-05-09T04:00:45;8.55;;;5.18;;
55025;SDS011;40925;45.666;18.994;2023-05-09T04:03:11;7.90;;;5.13;;
55025;SDS011;40925;45.666;18.994;2023-05-09T04:05:37;8.10;;;5.00;;
55025;SDS011;40925;45.666;18.994;2023-05-09T04:08:03;7.85;;;5.10;;
55025;SDS011;40925;45.666;18.994;2023-05-09T04:10:29;8.43;;;4.82;;
55025;SDS011;40925;45.666;18.994;2023-05-09T04:12:56;9.18;;;5.15;;
55025;SDS011;40925;45.666;18.994;2023-05-09T04:15:22;8.25;;;5.25;;
55025;SDS011;40925;45.666;18.994;2023-05-09T04:17:48;8.02;;;4.90;;
55025;SDS011;40925;45.666;18.994;2023-05-09T04:20:14;7.00;;;4.95;;
55025;SDS011;40925;45.666;18.994;2023-05-09T04:22:40;8.27;;;4.95;;
55025;SDS011;40925;45.666;18.994;2023-05-09T04:25:06;10.73;;;5.30;;
55025;SDS011;40925;45.666;18.994;2023-05-09T04:27:36;8.88;;;4.85;;
55025;SDS011;40925;45.666;18.994;2023-05-09T04:30:02;9.38;;;4.80;;
55025;SDS011;40925;45.666;18.994;2023-05-09T04:32:29;12.35;;;6.10;;
55025;SDS011;40925;45.666;18.994;2023-05-09T04:34:55;8.25;;;4.82;;
55025;SDS011;40925;45.666;18.994;2023-05-09T04:43:11;7.57;;;5.20;;
55025;SDS011;40925;45.666;18.994;2023-05-09T04:45:37;7.65;;;4.90;;
55025;SDS011;40925;45.666;18.994;2023-05-09T04:48:03;10.63;;;5.78;;
55025;SDS011;40925;45.666;18.994;2023-05-09T04:50:29;10.82;;;5.50;;
55025;SDS011;40925;45.666;18.994;2023-05-09T04:52:55;10.63;;;6.13;;
55025;SDS011;40925;45.666;18.994;2023-05-09T04:55:22;11.60;;;6.85;;
55025;SDS011;40925;45.666;18.994;2023-05-09T04:57:48;9.73;;;5.53;;
55025;SDS011;40925;45.666;18.994;2023-05-09T05:00:14;11.32;;;5.35;;
55025;SDS011;40925;45.666;18.994;2023-05-09T05:02:41;9.60;;;5.35;;
55025;SDS011;40925;45.666;18.994;2023-05-09T05:05:07;7.80;;;5.18;;
55025;SDS011;40925;45.666;18.994;2023-05-09T05:07:33;10.18;;;5.65;;
55025;SDS011;40925;45.666;18.994;2023-05-09T05:09:59;10.00;;;5.20;;
55025;SDS011;40925;45.666;18.994;2023-05-09T05:12:25;7.82;;;5.28;;
55025;SDS011;40925;45.666;18.994;2023-05-09T05:14:51;8.80;;;5.03;;
55025;SDS011;40925;45.666;18.994;2023-05-09T05:17:17;9.07;;;5.43;;
55025;SDS011;40925;45.666;18.994;2023-05-09T05:19:43;7.65;;;5.30;;
55025;SDS011;40925;45.666;18.994;2023-05-09T05:22:09;9.43;;;5.30;;
55025;SDS011;40925;45.666;18.994;2023-05-09T05:24:36;8.48;;;5.43;;
55025;SDS011;40925;45.666;18.994;2023-05-09T05:27:02;8.98;;;5.40;;
55025;SDS011;40925;45.666;18.994;2023-05-09T05:29:28;7.93;;;5.38;;
55025;SDS011;40925;45.666;18.994;2023-05-09T05:31:54;8.88;;;5.57;;
55025;SDS011;40925;45.666;18.994;2023-05-09T05:34:20;10.00;;;5.57;;
55025;SDS011;40925;45.666;18.994;2023-05-09T05:36:46;8.95;;;5.30;;
55025;SDS011;40925;45.666;18.994;2023-05-09T05:39:12;12.52;;;5.80;;
55025;SDS011;40925;45.666;18.994;2023-05-09T05:41:38;9.27;;;5.68;;
55025;SDS011;40925;45.666;18.994;2023-05-09T05:44:04;10.02;;;5.70;;
55025;SDS011;40925;45.666;18.994;2023-05-09T05:46:30;8.73;;;5.90;;
55025;SDS011;40925;45.666;18.994;2023-05-09T05:48:56;9.40;;;5.82;;
55025;SDS011;40925;45.666;18.994;2023-05-09T05:51:22;10.70;;;5.93;;
55025;SDS011;40925;45.666;18.994;2023-05-09T05:53:49;8.63;;;5.72;;
55025;SDS011;40925;45.666;18.994;2023-05-09T05:56:15;10.65;;;5.70;;
55025;SDS011;40925;45.666;18.994;2023-05-09T05:58:41;9.15;;;5.80;;
55025;SDS011;40925;45.666;18.994;2023-05-09T06:01:07;9.57;;;5.65;;
55025;SDS011;40925;45.666;18.994;2023-05-09T06:03:34;10.13;;;5.85;;
55025;SDS011;40925;45.666;18.994;2023-05-09T06:06:00;10.23;;;5.70;;
55025;SDS011;40925;45.666;18.994;2023-05-09T06:08:26;12.93;;;6.68;;
55025;SDS011;40925;45.666;18.994;2023-05-09T06:10:52;10.65;;;6.20;;
55025;SDS011;40925;45.666;18.994;2023-05-09T06:13:18;10.25;;;6.13;;
55025;SDS011;40925;45.666;18.994;2023-05-09T06:15:44;9.85;;;6.20;;
55025;SDS011;40925;45.666;18.994;2023-05-09T06:18:10;10.07;;;6.20;;
55025;SDS011;40925;45.666;18.994;2023-05-09T06:20:36;9.65;;;5.72;;
55025;SDS011;40925;45.666;18.994;2023-05-09T06:23:02;9.50;;;5.75;;
55025;SDS011;40925;45.666;18.994;2023-05-09T06:25:28;10.05;;;5.78;;
55025;SDS011;40925;45.666;18.994;2023-05-09T06:27:54;11.30;;;6.07;;
55025;SDS011;40925;45.666;18.994;2023-05-09T06:30:20;8.77;;;5.72;;
55025;SDS011;40925;45.666;18.994;2023-05-09T06:32:46;9.13;;;5.75;;
55025;SDS011;40925;45.666;18.994;2023-05-09T06:35:12;9.93;;;5.88;;
55025;SDS011;40925;45.666;18.994;2023-05-09T06:37:39;8.07;;;6.05;;
55025;SDS011;40925;45.666;18.994;2023-05-09T06:40:05;8.82;;;5.88;;
55025;SDS011;40925;45.666;18.994;2023-05-09T06:42:32;9.02;;;5.90;;
55025;SDS011;40925;45.666;18.994;2023-05-09T06:44:58;8.43;;;5.80;;
55025;SDS011;40925;45.666;18.994;2023-05-09T06:47:24;8.30;;;5.95;;
55025;SDS011;40925;45.666;18.994;2023-05-09T06:49:50;10.00;;;6.45;;
55025;SDS011;40925;45.666;18.994;2023-05-09T06:52:16;8.35;;;5.90;;
55025;SDS011;40925;45.666;18.994;2023-05-09T06:54:42;8.82;;;5.63;;
55025;SDS011;40925;45.666;18.994;2023-05-09T06:57:08;11.27;;;6.20;;
55025;SDS011;40925;45.666;18.994;2023-05-09T06:59:34;10.15;;;6.00;;
55025;SDS011;40925;45.666;18.994;2023-05-09T07:02:00;8.85;;;5.93;;
55025;SDS011;40925;45.666;18.994;2023-05-09T07:04:26;10.20;;;6.57;;
55025;SDS011;40925;45.666;18.994;2023-05-09T07:06:52;8.93;;;5.90;;
55025;SDS011;40925;45.666;18.994;2023-05-09T07:09:18;11.43;;;6.63;;
55025;SDS011;40925;45.666;18.994;2023-05-09T07:11:44;9.43;;;6.32;;
55025;SDS011;40925;45.666;18.994;2023-05-09T07:14:11;11.48;;;6.55;;
55025;SDS011;40925;45.666;18.994;2023-05-09T07:16:37;8.50;;;6.03;;
55025;SDS011;40925;45.666;18.994;2023-05-09T07:19:03;13.80;;;6.00;;
55025;SDS011;40925;45.666;18.994;2023-05-09T07:21:29;8.07;;;5.68;;
55025;SDS011;40925;45.666;18.994;2023-05-09T07:23:58;8.38;;;5.68;;
55025;SDS011;40925;45.666;18.994;2023-05-09T07:26:24;9.02;;;6.32;;
55025;SDS011;40925;45.666;18.994;2023-05-09T07:28:50;10.52;;;6.07;;
55025;SDS011;40925;45.666;18.994;2023-05-09T07:31:16;8.90;;;6.32;;
55025;SDS011;40925;45.666;18.994;2023-05-09T07:33:42;9.98;;;6.32;;
55025;SDS011;40925;45.666;18.994;2023-05-09T07:36:08;8.80;;;6.00;;
55025;SDS011;40925;45.666;18.994;2023-05-09T07:38:37;9.40;;;5.55;;
55025;SDS011;40925;45.666;18.994;2023-05-09T07:41:04;7.75;;;5.60;;
55025;SDS011;40925;45.666;18.994;2023-05-09T07:43:30;11.73;;;6.70;;
55025;SDS011;40925;45.666;18.994;2023-05-09T07:45:56;8.88;;;5.60;;
55025;SDS011;40925;45.666;18.994;2023-05-09T07:48:22;10.73;;;6.25;;
55025;SDS011;40925;45.666;18.994;2023-05-09T07:50:48;8.40;;;6.00;;
55025;SDS011;40925;45.666;18.994;2023-05-09T07:53:14;8.60;;;5.70;;
55025;SDS011;40925;45.666;18.994;2023-05-09T07:55:40;9.90;;;5.88;;
55025;SDS011;40925;45.666;18.994;2023-05-09T07:58:08;8.85;;;5.93;;
55025;SDS011;40925;45.666;18.994;2023-05-09T08:00:34;8.52;;;5.78;;
55025;SDS011;40925;45.666;18.994;2023-05-09T08:03:01;8.45;;;5.03;;
55025;SDS011;40925;45.666;18.994;2023-05-09T08:05:27;8.32;;;4.47;;
55025;SDS011;40925;45.666;18.994;2023-05-09T08:07:53;9.25;;;4.95;;
55025;SDS011;40925;45.666;18.994;2023-05-09T08:10:19;7.47;;;4.97;;
55025;SDS011;40925;45.666;18.994;2023-05-09T08:12:46;7.80;;;4.95;;
55025;SDS011;40925;45.666;18.994;2023-05-09T08:15:13;7.68;;;5.03;;
55025;SDS011;40925;45.666;18.994;2023-05-09T08:17:39;8.00;;;5.20;;
55025;SDS011;40925;45.666;18.994;2023-05-09T08:20:05;7.25;;;4.55;;
55025;SDS011;40925;45.666;18.994;2023-05-09T08:22:32;7.82;;;3.95;;
55025;SDS011;40925;45.666;18.994;2023-05-09T08:24:59;7.03;;;4.00;;
55025;SDS011;40925;45.666;18.994;2023-05-09T08:27:25;6.47;;;3.47;;
55025;SDS011;40925;45.666;18.994;2023-05-09T08:29:50;7.28;;;3.78;;
55025;SDS011;40925;45.666;18.994;2023-05-09T08:32:16;5.45;;;3.72;;
55025;SDS011;40925;45.666;18.994;2023-05-09T08:34:43;5.50;;;3.50;;
55025;SDS011;40925;45.666;18.994;2023-05-09T08:37:09;6.72;;;3.65;;
55025;SDS011;40925;45.666;18.994;2023-05-09T08:39:35;6.20;;;3.50;;
55025;SDS011;40925;45.666;18.994;2023-05-09T08:42:01;4.75;;;3.13;;
55025;SDS011;40925;45.666;18.994;2023-05-09T08:44:28;4.05;;;2.80;;
55025;SDS011;40925;45.666;18.994;2023-05-09T08:46:57;10.55;;;3.65;;
55025;SDS011;40925;45.666;18.994;2023-05-09T08:49:24;4.95;;;3.40;;
55025;SDS011;40925;45.666;18.994;2023-05-09T08:51:50;5.13;;;3.30;;
55025;SDS011;40925;45.666;18.994;2023-05-09T08:54:17;6.93;;;3.10;;
55025;SDS011;40925;45.666;18.994;2023-05-09T08:56:43;4.85;;;3.40;;
55025;SDS011;40925;45.666;18.994;2023-05-09T08:59:09;4.40;;;3.30;;
55025;SDS011;40925;45.666;18.994;2023-05-09T09:01:35;3.88;;;3.08;;
55025;SDS011;40925;45.666;18.994;2023-05-09T09:04:04;5.70;;;3.00;;
55025;SDS011;40925;45.666;18.994;2023-05-09T09:06:35;4.55;;;3.10;;
55025;SDS011;40925;45.666;18.994;2023-05-09T09:09:01;12.15;;;3.90;;
55025;SDS011;40925;45.666;18.994;2023-05-09T09:11:38;4.88;;;3.28;;
55025;SDS011;40925;45.666;18.994;2023-05-09T09:14:15;4.50;;;3.10;;
55025;SDS011;40925;45.666;18.994;2023-05-09T09:16:49;4.07;;;2.90;;
55025;SDS011;40925;45.666;18.994;2023-05-09T09:19:16;5.18;;;3.40;;
55025;SDS011;40925;45.666;18.994;2023-05-09T09:21:44;6.32;;;2.92;;
55025;SDS011;40925;45.666;18.994;2023-05-09T09:24:14;5.57;;;2.90;;
55025;SDS011;40925;45.666;18.994;2023-05-09T09:26:47;7.82;;;2.80;;
55025;SDS011;40925;45.666;18.994;2023-05-09T09:29:16;6.50;;;3.17;;
55025;SDS011;40925;45.666;18.994;2023-05-09T09:31:43;5.32;;;2.90;;
55025;SDS011;40925;45.666;18.994;2023-05-09T09:34:11;4.32;;;3.00;;
55025;SDS011;40925;45.666;18.994;2023-05-09T09:36:38;5.45;;;3.15;;
55025;SDS011;40925;45.666;18.994;2023-05-09T09:39:04;6.65;;;3.00;;
55025;SDS011;40925;45.666;18.994;2023-05-09T09:41:31;6.13;;;3.35;;
55025;SDS011;40925;45.666;18.994;2023-05-09T09:44:11;4.65;;;3.30;;
55025;SDS011;40925;45.666;18.994;2023-05-09T09:49:15;7.32;;;3.40;;
55025;SDS011;40925;45.666;18.994;2023-05-09T09:51:42;5.82;;;3.30;;
55025;SDS011;40925;45.666;18.994;2023-05-09T09:54:11;5.28;;;3.30;;
55025;SDS011;40925;45.666;18.994;2023-05-09T09:59:12;5.45;;;3.20;;
55025;SDS011;40925;45.666;18.994;2023-05-09T10:04:16;4.80;;;3.20;;
55025;SDS011;40925;45.666;18.994;2023-05-09T10:06:50;4.75;;;3.25;;
55025;SDS011;40925;45.666;18.994;2023-05-09T10:09:20;5.68;;;3.40;;
55025;SDS011;40925;45.666;18.994;2023-05-09T10:11:47;5.05;;;3.50;;
55025;SDS011;40925;45.666;18.994;2023-05-09T10:14:15;5.00;;;3.60;;
55025;SDS011;40925;45.666;18.994;2023-05-09T10:16:54;5.70;;;3.20;;
55025;SDS011;40925;45.666;18.994;2023-05-09T10:19:21;4.40;;;3.40;;
55025;SDS011;40925;45.666;18.994;2023-05-09T10:21:52;5.07;;;3.40;;
55025;SDS011;40925;45.666;18.994;2023-05-09T10:24:21;5.30;;;3.70;;
55025;SDS011;40925;45.666;18.994;2023-05-09T10:27:02;7.80;;;3.58;;
55025;SDS011;40925;45.666;18.994;2023-05-09T10:29:39;7.38;;;4.10;;
55025;SDS011;40925;45.666;18.994;2023-05-09T10:32:16;6.75;;;3.60;;
55025;SDS011;40925;45.666;18.994;2023-05-09T10:34:48;4.88;;;3.70;;
55025;SDS011;40925;45.666;18.994;2023-05-09T10:37:17;15.40;;;4.55;;
55025;SDS011;40925;45.666;18.994;2023-05-09T10:39:45;5.95;;;3.30;;
55025;SDS011;40925;45.666;18.994;2023-05-09T10:42:17;4.65;;;3.40;;
55025;SDS011;40925;45.666;18.994;2023-05-09T10:44:43;5.82;;;3.92;;
55025;SDS011;40925;45.666;18.994;2023-05-09T10:47:09;7.47;;;4.38;;
55025;SDS011;40925;45.666;18.994;2023-05-09T10:49:37;5.90;;;4.15;;
55025;SDS011;40925;45.666;18.994;2023-05-09T10:52:03;5.00;;;3.83;;
55025;SDS011;40925;45.666;18.994;2023-05-09T10:54:29;8.27;;;3.83;;
55025;SDS011;40925;45.666;18.994;2023-05-09T10:56:58;4.53;;;3.60;;
55025;SDS011;40925;45.666;18.994;2023-05-09T10:59:31;6.00;;;3.97;;
55025;SDS011;40925;45.666;18.994;2023-05-09T11:01:56;5.80;;;3.70;;
55025;SDS011;40925;45.666;18.994;2023-05-09T11:04:27;4.72;;;3.35;;
55025;SDS011;40925;45.666;18.994;2023-05-09T11:06:53;6.05;;;3.50;;
55025;SDS011;40925;45.666;18.994;2023-05-09T11:09:29;6.22;;;2.80;;
55025;SDS011;40925;45.666;18.994;2023-05-09T11:12:11;6.57;;;2.97;;
55025;SDS011;40925;45.666;18.994;2023-05-09T11:17:28;4.68;;;3.10;;
55025;SDS011;40925;45.666;18.994;2023-05-09T11:22:42;5.20;;;3.22;;
55025;SDS011;40925;45.666;18.994;2023-05-09T11:25:12;6.65;;;3.53;;
55025;SDS011;40925;45.666;18.994;2023-05-09T11:30:10;5.53;;;3.63;;
55025;SDS011;40925;45.666;18.994;2023-05-09T11:35:18;6.05;;;4.55;;
55025;SDS011;40925;45.666;18.994;2023-05-09T11:37:45;5.30;;;3.45;;
55025;SDS011;40925;45.666;18.994;2023-05-09T11:40:18;4.80;;;3.70;;
55025;SDS011;40925;45.666;18.994;2023-05-09T11:42:46;4.88;;;3.60;;
55025;SDS011;40925;45.666;18.994;2023-05-09T11:45:13;5.32;;;3.33;;
55025;SDS011;40925;45.666;18.994;2023-05-09T11:47:40;4.97;;;3.47;;
55025;SDS011;40925;45.666;18.994;2023-05-09T11:52:34;5.72;;;3.85;;
55025;SDS011;40925;45.666;18.994;2023-05-09T11:55:01;6.65;;;4.20;;
55025;SDS011;40925;45.666;18.994;2023-05-09T11:57:27;5.82;;;4.38;;
55025;SDS011;40925;45.666;18.994;2023-05-09T11:59:53;6.60;;;4.10;;
55025;SDS011;40925;45.666;18.994;2023-05-09T12:02:20;5.63;;;3.92;;
55025;SDS011;40925;45.666;18.994;2023-05-09T12:04:46;5.78;;;4.18;;
55025;SDS011;40925;45.666;18.994;2023-05-09T12:07:13;5.88;;;4.20;;
55025;SDS011;40925;45.666;18.994;2023-05-09T12:09:40;7.80;;;6.63;;
55025;SDS011;40925;45.666;18.994;2023-05-09T12:12:11;4.85;;;3.75;;
55025;SDS011;40925;45.666;18.994;2023-05-09T12:14:37;6.88;;;4.75;;
55025;SDS011;40925;45.666;18.994;2023-05-09T12:17:07;7.45;;;5.40;;
55025;SDS011;40925;45.666;18.994;2023-05-09T12:19:34;8.80;;;5.97;;
55025;SDS011;40925;45.666;18.994;2023-05-09T12:22:01;6.50;;;4.85;;
55025;SDS011;40925;45.666;18.994;2023-05-09T12:24:29;7.18;;;5.63;;
55025;SDS011;40925;45.666;18.994;2023-05-09T12:26:55;8.20;;;4.40;;
55025;SDS011;40925;45.666;18.994;2023-05-09T12:29:23;7.22;;;4.38;;
55025;SDS011;40925;45.666;18.994;2023-05-09T12:31:50;6.70;;;4.40;;
55025;SDS011;40925;45.666;18.994;2023-05-09T12:34:17;6.43;;;4.43;;
55025;SDS011;40925;45.666;18.994;2023-05-09T12:36:44;5.65;;;4.47;;
55025;SDS011;40925;45.666;18.994;2023-05-09T12:39:15;5.28;;;3.92;;
55025;SDS011;40925;45.666;18.994;2023-05-09T12:41:48;6.30;;;4.30;;
55025;SDS011;40925;45.666;18.994;2023-05-09T12:44:22;8.20;;;4.57;;
55025;SDS011;40925;45.666;18.994;2023-05-09T12:46:59;10.38;;;9.32;;
55025;SDS011;40925;45.666;18.994;2023-05-09T12:49:27;6.43;;;4.95;;
55025;SDS011;40925;45.666;18.994;2023-05-09T12:51:54;6.57;;;4.60;;
55025;SDS011;40925;45.666;18.994;2023-05-09T12:54:23;7.22;;;4.70;;
55025;SDS011;40925;45.666;18.994;2023-05-09T12:56:54;8.77;;;4.80;;
55025;SDS011;40925;45.666;18.994;2023-05-09T12:59:22;5.70;;;4.30;;
55025;SDS011;40925;45.666;18.994;2023-05-09T13:01:52;6.00;;;4.25;;
55025;SDS011;40925;45.666;18.994;2023-05-09T13:04:22;7.90;;;4.78;;
55025;SDS011;40925;45.666;18.994;2023-05-09T13:06:50;5.88;;;4.43;;
55025;SDS011;40925;45.666;18.994;2023-05-09T13:09:35;7.40;;;4.50;;
55025;SDS011;40925;45.666;18.994;2023-05-09T13:12:17;5.32;;;4.40;;
55025;SDS011;40925;45.666;18.994;2023-05-09T13:14:44;5.70;;;4.10;;
55025;SDS011;40925;45.666;18.994;2023-05-09T13:17:10;7.13;;;5.22;;
55025;SDS011;40925;45.666;18.994;2023-05-09T13:19:36;7.22;;;4.95;;
55025;SDS011;40925;45.666;18.994;2023-05-09T13:22:03;8.90;;;4.70;;
55025;SDS011;40925;45.666;18.994;2023-05-09T13:24:29;7.95;;;4.93;;
55025;SDS011;40925;45.666;18.994;2023-05-09T13:26:56;7.18;;;5.13;;
55025;SDS011;40925;45.666;18.994;2023-05-09T13:29:22;5.78;;;4.07;;
55025;SDS011;40925;45.666;18.994;2023-05-09T13:31:47;8.95;;;4.80;;
55025;SDS011;40925;45.666;18.994;2023-05-09T13:34:13;9.10;;;6.82;;
55025;SDS011;40925;45.666;18.994;2023-05-09T13:36:39;7.32;;;4.55;;
55025;SDS011;40925;45.666;18.994;2023-05-09T13:39:05;7.97;;;4.63;;
55025;SDS011;40925;45.666;18.994;2023-05-09T13:41:30;7.53;;;5.00;;
55025;SDS011;40925;45.666;18.994;2023-05-09T13:43:57;7.03;;;4.18;;
55025;SDS011;40925;45.666;18.994;2023-05-09T13:46:23;5.75;;;3.90;;
55025;SDS011;40925;45.666;18.994;2023-05-09T13:48:49;5.88;;;3.78;;
55025;SDS011;40925;45.666;18.994;2023-05-09T13:51:14;15.30;;;5.15;;
55025;SDS011;40925;45.666;18.994;2023-05-09T13:53:55;5.60;;;3.75;;
55025;SDS011;40925;45.666;18.994;2023-05-09T13:56:21;8.80;;;4.00;;
55025;SDS011;40925;45.666;18.994;2023-05-09T13:58:47;5.15;;;3.70;;
55025;SDS011;40925;45.666;18.994;2023-05-09T14:01:12;7.25;;;3.88;;
55025;SDS011;40925;45.666;18.994;2023-05-09T14:03:38;6.15;;;3.88;;
55025;SDS011;40925;45.666;18.994;2023-05-09T14:06:04;6.30;;;3.30;;
55025;SDS011;40925;45.666;18.994;2023-05-09T14:08:30;8.05;;;3.50;;
55025;SDS011;40925;45.666;18.994;2023-05-09T14:10:56;4.18;;;3.05;;
55025;SDS011;40925;45.666;18.994;2023-05-09T14:13:22;6.72;;;3.58;;
55025;SDS011;40925;45.666;18.994;2023-05-09T14:15:47;8.60;;;3.63;;
55025;SDS011;40925;45.666;18.994;2023-05-09T14:18:13;6.53;;;3.45;;
55025;SDS011;40925;45.666;18.994;2023-05-09T14:20:39;6.90;;;3.45;;
55025;SDS011;40925;45.666;18.994;2023-05-09T14:23:06;4.28;;;3.30;;
55025;SDS011;40925;45.666;18.994;2023-05-09T14:25:31;5.40;;;4.30;;
55025;SDS011;40925;45.666;18.994;2023-05-09T14:27:58;7.45;;;4.00;;
55025;SDS011;40925;45.666;18.994;2023-05-09T14:30:25;6.03;;;4.18;;
55025;SDS011;40925;45.666;18.994;2023-05-09T14:32:50;5.10;;;3.60;;
55025;SDS011;40925;45.666;18.994;2023-05-09T14:35:16;6.32;;;3.50;;
55025;SDS011;40925;45.666;18.994;2023-05-09T14:37:42;4.30;;;3.10;;
55025;SDS011;40925;45.666;18.994;2023-05-09T14:40:08;5.30;;;3.05;;
55025;SDS011;40925;45.666;18.994;2023-05-09T14:42:34;4.13;;;2.85;;
55025;SDS011;40925;45.666;18.994;2023-05-09T14:45:00;5.85;;;2.83;;
55025;SDS011;40925;45.666;18.994;2023-05-09T14:47:26;6.40;;;3.85;;
55025;SDS011;40925;45.666;18.994;2023-05-09T14:49:52;4.60;;;3.50;;
55025;SDS011;40925;45.666;18.994;2023-05-09T14:52:18;6.28;;;3.30;;
55025;SDS011;40925;45.666;18.994;2023-05-09T14:54:43;5.70;;;3.13;;
55025;SDS011;40925;45.666;18.994;2023-05-09T14:57:09;8.75;;;3.08;;
55025;SDS011;40925;45.666;18.994;2023-05-09T14:59:35;5.00;;;3.00;;
55025;SDS011;40925;45.666;18.994;2023-05-09T15:02:01;4.70;;;3.13;;
55025;SDS011;40925;45.666;18.994;2023-05-09T15:04:27;4.15;;;2.75;;
55025;SDS011;40925;45.666;18.994;2023-05-09T15:06:54;4.18;;;2.70;;
55025;SDS011;40925;45.666;18.994;2023-05-09T15:09:21;4.80;;;2.90;;
55025;SDS011;40925;45.666;18.994;2023-05-09T15:11:47;5.63;;;3.38;;
55025;SDS011;40925;45.666;18.994;2023-05-09T15:14:12;5.28;;;2.90;;
55025;SDS011;40925;45.666;18.994;2023-05-09T15:16:38;3.95;;;2.80;;
55025;SDS011;40925;45.666;18.994;2023-05-09T15:19:07;4.72;;;2.75;;
55025;SDS011;40925;45.666;18.994;2023-05-09T15:21:33;5.50;;;2.90;;
55025;SDS011;40925;45.666;18.994;2023-05-09T15:23:59;4.50;;;3.05;;
55025;SDS011;40925;45.666;18.994;2023-05-09T15:26:24;4.15;;;2.88;;